Time;durP1;ratioP1;P1;durP2;ratioP2;P2;SDS_P1;SDS_P2;PMS_P1;PMS_P2;Temp;Humidity;BMP_temperature;BMP_pressure;BME280_temperature;BME280_humidity;BME280_pressure;Samples;Min_cycle;Max_cycle;Signal;HPM_P1;HPM_P2
2022/07/11 00:02:12;;;;;;;4.22;2.05;;;15.90;99.90;;;;;;5043340;28;20618;-79
2022/07/11 00:04:38;;;;;;;7.22;2.30;;;15.90;99.90;;;;;;5046203;28;20067;-79
2022/07/11 00:07:05;;;;;;;2.63;1.80;;;15.90;99.90;;;;;;5030105;28;20037;-79
2022/07/11 00:09:31;;;;;;;4.68;2.00;;;15.90;99.90;;;;;;5043881;28;20530;-80
2022/07/11 00:11:56;;;;;;;4.50;1.88;;;15.80;99.90;;;;;;5044552;28;20040;-79
2022/07/11 00:14:23;;;;;;;2.38;1.65;;;15.80;99.90;;;;;;5057630;28;20538;-80
2022/07/11 00:16:49;;;;;;;3.50;1.80;;;15.70;99.90;;;;;;5043014;28;20064;-79
2022/07/11 00:19:15;;;;;;;6.15;1.88;;;15.70;99.90;;;;;;5043821;28;20132;-80
2022/07/11 00:21:40;;;;;;;7.18;1.70;;;15.60;99.90;;;;;;5043094;28;20116;-79
2022/07/11 00:24:07;;;;;;;3.78;1.60;;;15.60;99.90;;;;;;5041138;28;20466;-79
2022/07/11 00:26:33;;;;;;;3.05;1.80;;;15.60;99.90;;;;;;5050123;28;20039;-79
2022/07/11 00:28:59;;;;;;;3.05;1.70;;;15.70;99.90;;;;;;5044325;28;20647;-79
2022/07/11 00:31:24;;;;;;;2.90;1.50;;;15.60;99.90;;;;;;5045045;28;20037;-79
2022/07/11 00:33:50;;;;;;;3.22;1.90;;;15.60;99.90;;;;;;5042523;28;20037;-79
2022/07/11 00:36:15;;;;;;;2.97;1.58;;;15.60;99.90;;;;;;5044631;28;20044;-79
2022/07/11 00:38:41;;;;;;;2.40;1.80;;;15.50;99.90;;;;;;5030260;28;20064;-79
2022/07/11 00:41:07;;;;;;;2.60;1.70;;;15.60;99.90;;;;;;5044330;28;20414;-79
2022/07/11 00:43:35;;;;;;;2.55;1.65;;;15.50;99.90;;;;;;5045168;28;20140;-79
2022/07/11 00:46:00;;;;;;;2.80;1.88;;;15.50;99.90;;;;;;5039752;28;20056;-79
2022/07/11 00:48:26;;;;;;;4.68;1.80;;;15.50;99.90;;;;;;5041493;28;20037;-80
2022/07/11 00:50:53;;;;;;;2.70;2.00;;;15.50;99.90;;;;;;5027086;28;20029;-80
2022/07/11 00:53:20;;;;;;;3.00;1.73;;;15.50;99.90;;;;;;5041502;28;20033;-79
2022/07/11 00:55:47;;;;;;;4.68;1.92;;;15.40;99.90;;;;;;5025397;28;20049;-79
2022/07/11 00:58:12;;;;;;;3.00;1.92;;;15.40;99.90;;;;;;5042043;28;20064;-79
2022/07/11 01:00:39;;;;;;;5.13;1.95;;;15.40;99.90;;;;;;5044679;28;20045;-79
2022/07/11 01:03:05;;;;;;;3.72;1.80;;;15.40;99.90;;;;;;5044033;28;20041;-79
2022/07/11 01:05:31;;;;;;;3.10;1.50;;;15.40;99.90;;;;;;5041417;28;20047;-79
2022/07/11 01:07:56;;;;;;;3.58;1.80;;;15.40;99.90;;;;;;5044190;28;20049;-79
2022/07/11 01:10:23;;;;;;;2.70;1.70;;;15.40;99.90;;;;;;5045011;28;20040;-80
2022/07/11 01:12:49;;;;;;;4.75;2.30;;;15.40;99.90;;;;;;5026247;28;20136;-80
2022/07/11 01:15:14;;;;;;;3.25;1.70;;;15.50;99.90;;;;;;5042461;28;20120;-79
2022/07/11 01:17:40;;;;;;;3.03;1.80;;;15.50;99.90;;;;;;5044840;28;20126;-80
2022/07/11 01:20:06;;;;;;;2.60;1.65;;;15.60;99.90;;;;;;5041359;28;20512;-79
2022/07/11 01:22:37;;;;;;;4.22;1.90;;;15.60;99.90;;;;;;5043694;28;20045;-80
2022/07/11 01:25:02;;;;;;;4.35;1.92;;;15.60;99.90;;;;;;5042765;28;20045;-79
2022/07/11 01:27:28;;;;;;;3.35;2.10;;;15.50;99.90;;;;;;5042889;28;20422;-79
2022/07/11 01:29:54;;;;;;;7.72;2.00;;;15.50;99.90;;;;;;5043906;28;20036;-80
2022/07/11 01:32:21;;;;;;;4.30;2.20;;;15.50;99.90;;;;;;5040982;28;20056;-79
2022/07/11 01:34:47;;;;;;;3.47;2.13;;;15.50;99.90;;;;;;5041811;28;20120;-80
2022/07/11 01:37:12;;;;;;;3.33;1.92;;;15.50;99.90;;;;;;5042142;28;21829;-79
2022/07/11 01:39:38;;;;;;;4.40;2.00;;;15.50;99.90;;;;;;5025614;28;20033;-79
2022/07/11 01:42:04;;;;;;;3.88;2.45;;;15.50;99.90;;;;;;5044547;28;20029;-80
2022/07/11 01:44:30;;;;;;;3.80;2.33;;;15.50;99.90;;;;;;5040896;28;20112;-79
2022/07/11 01:46:55;;;;;;;2.80;2.20;;;15.50;99.90;;;;;;5041494;28;20578;-80
2022/07/11 01:49:21;;;;;;;4.80;2.13;;;15.50;99.90;;;;;;5041745;28;20033;-80
2022/07/11 01:51:48;;;;;;;4.90;2.30;;;15.50;99.90;;;;;;5044585;28;20048;-80
2022/07/11 01:54:14;;;;;;;4.78;2.20;;;15.50;99.90;;;;;;5040098;28;20462;-80
2022/07/11 01:56:40;;;;;;;4.63;2.35;;;15.50;99.90;;;;;;5043139;28;20059;-80
2022/07/11 01:59:06;;;;;;;5.82;2.50;;;15.50;99.90;;;;;;5041756;28;20636;-80
2022/07/11 02:01:32;;;;;;;3.33;2.50;;;15.50;99.90;;;;;;5042041;28;20644;-80
2022/07/11 02:04:00;;;;;;;4.80;2.42;;;15.50;99.90;;;;;;5025175;28;20045;-80
2022/07/11 02:06:25;;;;;;;5.85;2.90;;;15.40;99.90;;;;;;5043777;28;20056;-80
2022/07/11 02:08:51;;;;;;;5.25;2.90;;;15.40;99.90;;;;;;5042575;28;20029;-80
2022/07/11 02:11:16;;;;;;;4.93;2.42;;;15.40;99.90;;;;;;5024665;28;20037;-80
2022/07/11 02:13:42;;;;;;;5.35;2.75;;;15.30;99.90;;;;;;5041516;28;20037;-80
2022/07/11 02:16:08;;;;;;;4.28;2.33;;;15.30;99.90;;;;;;5043232;28;20507;-80
2022/07/11 02:18:34;;;;;;;4.53;3.00;;;15.30;99.90;;;;;;5040708;28;20505;-80
2022/07/11 02:21:00;;;;;;;4.85;2.90;;;15.40;99.90;;;;;;5043229;28;20123;-80
2022/07/11 02:23:25;;;;;;;7.93;2.92;;;15.30;99.90;;;;;;5033780;28;20129;-80
2022/07/11 02:25:53;;;;;;;5.85;3.20;;;15.30;99.90;;;;;;5026226;28;20086;-80
2022/07/11 02:28:18;;;;;;;4.30;3.10;;;15.30;99.90;;;;;;5039512;28;20044;-80
2022/07/11 02:30:45;;;;;;;5.50;2.90;;;15.30;99.90;;;;;;5052840;28;20380;-80
2022/07/11 02:33:15;;;;;;;7.18;3.05;;;15.30;99.90;;;;;;5042621;28;20041;-80
2022/07/11 02:35:44;;;;;;;4.60;3.00;;;15.40;99.90;;;;;;5051912;28;20433;-80
2022/07/11 02:38:09;;;;;;;6.90;3.03;;;15.40;99.90;;;;;;5042523;28;20052;-79
2022/07/11 02:40:35;;;;;;;5.75;3.47;;;15.40;99.90;;;;;;5041450;28;20038;-79
2022/07/11 02:43:00;;;;;;;7.28;3.53;;;15.40;99.90;;;;;;5041380;28;20044;-79
2022/07/11 02:45:26;;;;;;;10.90;4.07;;;15.30;99.90;;;;;;5042527;28;20037;-79
2022/07/11 02:47:51;;;;;;;8.85;4.30;;;15.30;99.90;;;;;;5030450;28;20044;-79
2022/07/11 02:50:17;;;;;;;8.30;4.07;;;15.30;99.90;;;;;;5044657;28;20213;-80
2022/07/11 02:52:43;;;;;;;6.13;3.83;;;15.40;99.90;;;;;;5045795;28;20043;-79
2022/07/11 02:55:10;;;;;;;8.13;4.07;;;15.30;99.90;;;;;;5043347;28;20040;-79
2022/07/11 02:57:38;;;;;;;8.38;3.30;;;15.30;99.90;;;;;;5046220;28;20044;-79
2022/07/11 03:00:06;;;;;;;8.82;3.40;;;15.30;99.90;;;;;;5044645;28;20040;-79
2022/07/11 03:02:31;;;;;;;10.00;3.33;;;15.30;99.90;;;;;;5046254;28;20044;-79
2022/07/11 03:04:58;;;;;;;8.18;3.60;;;15.30;99.90;;;;;;5046769;28;20103;-79
2022/07/11 03:07:26;;;;;;;6.63;3.20;;;15.30;99.90;;;;;;5044544;28;20525;-80
2022/07/11 03:09:52;;;;;;;7.05;3.40;;;15.30;99.90;;;;;;5043460;28;20108;-80
2022/07/11 03:12:18;;;;;;;6.78;3.35;;;15.30;99.90;;;;;;5045941;28;20087;-79
2022/07/11 03:14:43;;;;;;;7.40;3.60;;;15.30;99.90;;;;;;5043355;28;20032;-79
2022/07/11 03:17:09;;;;;;;8.15;3.92;;;15.30;99.90;;;;;;5043408;28;20041;-79
2022/07/11 03:19:34;;;;;;;5.05;3.60;;;15.20;99.90;;;;;;5046340;28;20044;-79
2022/07/11 03:22:00;;;;;;;7.50;3.60;;;15.30;99.90;;;;;;5028693;28;20563;-79
2022/07/11 03:24:26;;;;;;;6.20;3.50;;;15.20;99.90;;;;;;5044627;28;20025;-79
2022/07/11 03:26:51;;;;;;;6.88;3.72;;;15.30;99.90;;;;;;5044448;28;20045;-79
2022/07/11 03:29:17;;;;;;;4.75;3.33;;;15.30;99.90;;;;;;5055213;28;20032;-78
2022/07/11 03:31:43;;;;;;;4.78;2.97;;;15.30;99.90;;;;;;5046606;28;20697;-78
2022/07/11 03:34:09;;;;;;;6.55;3.25;;;15.30;99.90;;;;;;5042884;28;20087;-78
2022/07/11 03:36:34;;;;;;;7.70;3.22;;;15.40;99.90;;;;;;5027309;28;20072;-78
2022/07/11 03:39:00;;;;;;;5.65;3.15;;;15.30;99.90;;;;;;5044634;28;20037;-78
2022/07/11 03:41:26;;;;;;;5.75;3.30;;;15.30;99.90;;;;;;5046924;28;20469;-78
2022/07/11 03:43:51;;;;;;;8.05;3.35;;;15.20;99.90;;;;;;5043807;28;20044;-78
2022/07/11 03:46:17;;;;;;;4.93;3.25;;;15.30;99.90;;;;;;5044326;28;20041;-78
2022/07/11 03:48:43;;;;;;;5.88;2.90;;;15.40;99.90;;;;;;5045573;28;20043;-78
2022/07/11 03:51:08;;;;;;;5.75;2.97;;;15.30;99.90;;;;;;5045392;28;20140;-79
2022/07/11 03:53:34;;;;;;;4.25;2.75;;;15.20;99.90;;;;;;5043979;28;20465;-78
2022/07/11 03:55:59;;;;;;;5.32;2.45;;;15.20;99.90;;;;;;5044218;28;20491;-78
2022/07/11 03:58:26;;;;;;;6.03;2.72;;;15.20;99.90;;;;;;5043887;28;20132;-78
2022/07/11 04:00:52;;;;;;;3.70;1.77;;;15.20;99.90;;;;;;5043236;28;20578;-79
2022/07/11 04:03:17;;;;;;;4.28;1.73;;;15.20;99.90;;;;;;5045538;28;20063;-78
2022/07/11 04:05:43;;;;;;;2.38;1.40;;;15.20;99.90;;;;;;5046259;28;20151;-79
2022/07/11 04:08:08;;;;;;;3.67;1.40;;;15.30;99.90;;;;;;5043749;28;20029;-79
2022/07/11 04:10:34;;;;;;;2.42;1.25;;;15.30;99.90;;;;;;5042032;28;20113;-79
2022/07/11 04:12:59;;;;;;;3.55;1.30;;;15.30;99.90;;;;;;5044746;28;20469;-79
2022/07/11 04:15:25;;;;;;;1.85;1.25;;;15.30;99.90;;;;;;5028103;28;20053;-79
2022/07/11 04:17:50;;;;;;;2.88;1.40;;;15.30;99.90;;;;;;5045463;28;20060;-79
2022/07/11 04:20:16;;;;;;;4.35;1.40;;;15.30;99.90;;;;;;5046971;28;20041;-79
2022/07/11 04:22:41;;;;;;;4.25;1.25;;;15.30;99.90;;;;;;5043523;28;20033;-79
2022/07/11 04:25:07;;;;;;;3.08;1.48;;;15.30;99.90;;;;;;5042664;28;20052;-79
2022/07/11 04:27:33;;;;;;;3.67;1.70;;;15.30;99.90;;;;;;5044093;28;20486;-79
2022/07/11 04:29:58;;;;;;;4.15;1.50;;;15.30;99.90;;;;;;5043439;28;20037;-80
2022/07/11 04:32:24;;;;;;;4.85;1.20;;;15.40;99.90;;;;;;5043772;28;20071;-80
2022/07/11 04:34:49;;;;;;;2.80;1.52;;;15.40;99.90;;;;;;5042984;28;20037;-79
2022/07/11 04:37:15;;;;;;;5.63;1.55;;;15.40;99.90;;;;;;5044162;28;20095;-78
2022/07/11 04:39:41;;;;;;;3.42;1.38;;;15.40;99.90;;;;;;5044619;28;20033;-79
2022/07/11 04:42:06;;;;;;;4.25;1.80;;;15.40;99.90;;;;;;5042599;28;20494;-79
2022/07/11 04:44:32;;;;;;;3.78;1.50;;;15.40;99.90;;;;;;5041238;28;20368;-79
2022/07/11 04:46:58;;;;;;;5.35;1.95;;;15.50;99.90;;;;;;5043910;28;20095;-79
2022/07/11 04:49:23;;;;;;;3.25;1.52;;;15.50;99.90;;;;;;5042834;28;20048;-79
2022/07/11 04:51:49;;;;;;;2.83;1.65;;;15.50;99.90;;;;;;5043941;28;20028;-79
2022/07/11 04:54:15;;;;;;;3.05;1.40;;;15.60;99.90;;;;;;5041739;28;20515;-79
2022/07/11 04:56:41;;;;;;;4.95;1.58;;;15.60;99.90;;;;;;5042552;28;20406;-80
2022/07/11 04:59:07;;;;;;;4.43;1.55;;;15.70;99.90;;;;;;5038362;28;20087;-79
2022/07/11 05:01:34;;;;;;;5.82;1.98;;;15.60;99.90;;;;;;5045026;28;20419;-79
2022/07/11 05:04:00;;;;;;;4.25;1.30;;;15.70;99.90;;;;;;5053347;28;20045;-79
2022/07/11 05:06:25;;;;;;;4.78;1.40;;;15.60;99.90;;;;;;5040940;28;20037;-79
2022/07/11 05:08:51;;;;;;;5.90;1.63;;;15.70;99.90;;;;;;5043470;28;20116;-79
2022/07/11 05:11:16;;;;;;;7.70;1.30;;;15.70;99.90;;;;;;5044529;28;20052;-79
2022/07/11 05:13:42;;;;;;;3.92;1.15;;;15.80;99.90;;;;;;5041443;28;20025;-79
2022/07/11 05:16:08;;;;;;;3.92;1.10;;;15.80;99.90;;;;;;5044260;28;20044;-79
2022/07/11 05:18:33;;;;;;;2.67;1.00;;;15.80;99.90;;;;;;5026060;28;20124;-79
2022/07/11 05:20:59;;;;;;;2.45;0.98;;;15.80;99.90;;;;;;5044240;28;20072;-79
2022/07/11 05:23:24;;;;;;;2.28;1.00;;;15.70;99.90;;;;;;5040987;28;20028;-79
2022/07/11 05:25:50;;;;;;;2.85;1.10;;;15.80;99.90;;;;;;5052711;28;20052;-79
2022/07/11 05:28:16;;;;;;;2.30;1.20;;;15.80;99.90;;;;;;5043005;28;20076;-79
2022/07/11 05:30:41;;;;;;;2.70;1.15;;;15.80;99.90;;;;;;5044193;28;20067;-80
2022/07/11 05:33:07;;;;;;;2.70;1.10;;;15.80;99.90;;;;;;5044222;28;20140;-80
2022/07/11 05:35:32;;;;;;;2.47;1.10;;;15.80;99.90;;;;;;5040960;28;20060;-80
2022/07/11 05:37:58;;;;;;;4.90;1.45;;;15.80;99.90;;;;;;5044115;28;20087;-80
2022/07/11 05:40:23;;;;;;;4.22;1.50;;;15.90;99.90;;;;;;5044769;28;20049;-79
2022/07/11 05:42:49;;;;;;;5.30;1.30;;;15.80;99.90;;;;;;5042221;28;20036;-79
2022/07/11 05:45:14;;;;;;;3.83;1.15;;;15.80;99.90;;;;;;5024910;28;20535;-79
2022/07/11 05:47:40;;;;;;;2.80;1.05;;;15.80;99.90;;;;;;5027268;28;20698;-79
2022/07/11 05:50:06;;;;;;;4.22;0.95;;;15.80;99.90;;;;;;5027890;28;20032;-79
2022/07/11 05:52:32;;;;;;;2.80;1.02;;;15.80;99.90;;;;;;5042785;28;20071;-79
2022/07/11 05:54:58;;;;;;;2.83;1.15;;;15.90;99.90;;;;;;5042839;28;20515;-79
2022/07/11 05:57:24;;;;;;;3.53;1.00;;;15.90;99.90;;;;;;5044204;28;20111;-78
2022/07/11 05:59:50;;;;;;;2.60;0.82;;;16.00;99.90;;;;;;5027833;28;20128;-79
2022/07/11 06:02:16;;;;;;;1.67;0.90;;;16.00;99.90;;;;;;5043888;28;20048;-79
2022/07/11 06:04:42;;;;;;;2.10;1.08;;;16.00;99.90;;;;;;5042263;28;20033;-79
2022/07/11 06:07:08;;;;;;;2.42;0.75;;;16.10;99.90;;;;;;5042765;28;20124;-79
2022/07/11 06:09:35;;;;;;;2.80;0.90;;;16.10;99.90;;;;;;5040589;28;20047;-79
2022/07/11 06:12:00;;;;;;;2.53;1.25;;;16.10;99.90;;;;;;5044034;28;20120;-79
2022/07/11 06:14:26;;;;;;;2.10;0.73;;;16.20;99.90;;;;;;5025056;28;20068;-79
2022/07/11 06:16:52;;;;;;;2.88;0.80;;;16.20;99.90;;;;;;5038895;28;20045;-79
2022/07/11 06:19:18;;;;;;;4.47;0.80;;;16.20;99.90;;;;;;5041631;28;20043;-79
2022/07/11 06:21:43;;;;;;;4.65;0.93;;;16.30;99.90;;;;;;5012712;28;20044;-80
2022/07/11 06:24:09;;;;;;;2.42;0.90;;;16.40;99.90;;;;;;5029199;28;20103;-79
2022/07/11 06:26:35;;;;;;;4.40;0.90;;;16.40;99.90;;;;;;5029914;28;20045;-79
2022/07/11 06:29:01;;;;;;;2.70;0.80;;;16.40;99.90;;;;;;5029882;28;20120;-79
2022/07/11 06:31:27;;;;;;;3.58;0.82;;;16.40;99.90;;;;;;5042555;28;20041;-79
2022/07/11 06:33:57;;;;;;;3.30;0.88;;;16.50;99.90;;;;;;5039728;28;20087;-80
2022/07/11 06:36:23;;;;;;;2.53;0.88;;;16.50;99.90;;;;;;5044706;28;20033;-79
2022/07/11 06:38:50;;;;;;;3.22;0.77;;;16.60;99.90;;;;;;5042760;28;20045;-79
2022/07/11 06:41:15;;;;;;;2.65;1.00;;;16.60;99.90;;;;;;5042958;28;20041;-78
2022/07/11 06:43:41;;;;;;;3.75;1.00;;;16.50;99.90;;;;;;5043887;28;20047;-78
2022/07/11 06:46:06;;;;;;;1.67;0.80;;;16.60;99.90;;;;;;5040269;28;20519;-78
2022/07/11 06:48:32;;;;;;;5.05;0.90;;;16.50;99.90;;;;;;5040884;28;20415;-78
2022/07/11 06:50:58;;;;;;;2.65;0.70;;;16.60;99.90;;;;;;5045292;28;20041;-78
2022/07/11 06:53:23;;;;;;;2.15;0.70;;;16.60;99.90;;;;;;5052421;28;20951;-78
2022/07/11 06:55:49;;;;;;;1.40;0.30;;;16.60;99.90;;;;;;5047058;28;20123;-78
2022/07/11 06:58:31;;;;;;;0.82;0.32;;;16.60;99.90;;;;;;5039705;28;20085;-78
2022/07/11 07:01:02;;;;;;;1.25;0.47;;;16.50;99.90;;;;;;5039954;28;20053;-77
2022/07/11 07:03:28;;;;;;;0.63;0.30;;;16.50;99.90;;;;;;5047459;28;20116;-78
2022/07/11 07:05:55;;;;;;;1.15;0.40;;;16.50;99.90;;;;;;5033876;28;20059;-77
2022/07/11 07:08:28;;;;;;;1.08;0.40;;;16.50;99.90;;;;;;5045447;28;20041;-78
2022/07/11 07:10:54;;;;;;;0.83;0.27;;;16.60;99.90;;;;;;5046058;28;20075;-78
2022/07/11 07:13:23;;;;;;;1.67;0.63;;;16.60;99.90;;;;;;5029559;28;20295;-78
2022/07/11 07:15:49;;;;;;;4.68;0.82;;;16.60;99.90;;;;;;5041554;28;20037;-78
2022/07/11 07:18:15;;;;;;;2.08;0.80;;;16.60;99.90;;;;;;5041816;28;20495;-78
2022/07/11 07:20:41;;;;;;;2.20;1.13;;;16.60;99.90;;;;;;5047960;28;20041;-78
2022/07/11 07:23:06;;;;;;;2.95;1.08;;;16.60;99.90;;;;;;5043628;28;20115;-78
2022/07/11 07:25:32;;;;;;;4.97;1.30;;;16.60;99.90;;;;;;5029495;28;20037;-78
2022/07/11 07:27:57;;;;;;;4.47;1.40;;;16.70;99.90;;;;;;5047841;28;20033;-79
2022/07/11 07:30:23;;;;;;;12.80;2.08;;;16.80;99.90;;;;;;5040217;28;20029;-78
2022/07/11 07:32:48;;;;;;;5.45;1.50;;;16.80;99.90;;;;;;5029912;28;20526;-79
2022/07/11 07:35:14;;;;;;;2.05;0.90;;;17.00;99.90;;;;;;5040589;28;20040;-79
2022/07/11 07:37:39;;;;;;;1.98;1.00;;;17.10;99.90;;;;;;5045763;28;20087;-79
2022/07/11 07:40:05;;;;;;;4.05;0.93;;;17.10;99.90;;;;;;5022325;28;20037;-78
2022/07/11 07:42:31;;;;;;;1.10;0.50;;;17.20;99.90;;;;;;5044324;28;20033;-77
2022/07/11 07:44:57;;;;;;;4.65;0.90;;;17.40;99.90;;;;;;5038524;28;20504;-78
2022/07/11 07:47:22;;;;;;;1.20;0.75;;;17.60;99.90;;;;;;5039203;28;20029;-78
2022/07/11 07:49:48;;;;;;;1.52;0.77;;;17.80;99.90;;;;;;5050195;28;20033;-78
2022/07/11 07:52:14;;;;;;;1.67;1.00;;;17.90;99.90;;;;;;5043396;28;20758;-78
2022/07/11 07:54:39;;;;;;;2.33;0.68;;;17.90;99.90;;;;;;5046631;28;20533;-78
2022/07/11 07:57:05;;;;;;;1.08;0.57;;;18.00;99.90;;;;;;5031754;28;20048;-79
2022/07/11 07:59:31;;;;;;;2.33;0.70;;;18.10;99.90;;;;;;5045941;28;20033;-79
2022/07/11 08:01:56;;;;;;;4.30;1.10;;;18.20;99.90;;;;;;5030228;28;20107;-78
2022/07/11 08:04:22;;;;;;;1.63;0.80;;;18.10;99.90;;;;;;5040430;28;20045;-77
2022/07/11 08:06:48;;;;;;;2.10;1.00;;;18.00;99.90;;;;;;5044845;28;20037;-79
2022/07/11 08:09:13;;;;;;;2.40;0.77;;;18.00;99.90;;;;;;5044654;28;20089;-78
2022/07/11 08:11:39;;;;;;;1.05;0.40;;;17.90;99.90;;;;;;5048592;28;20422;-78
2022/07/11 08:14:07;;;;;;;1.45;0.52;;;17.90;99.90;;;;;;5050918;28;20513;-78
2022/07/11 08:16:33;;;;;;;0.30;0.20;;;17.80;99.90;;;;;;5040142;28;20439;-79
2022/07/11 08:19:00;;;;;;;0.38;0.20;;;17.80;99.90;;;;;;5031588;28;20040;-79
2022/07/11 08:21:27;;;;;;;0.73;0.20;;;18.20;99.90;;;;;;5044714;28;20095;-77
2022/07/11 08:23:53;;;;;;;0.65;0.20;;;18.40;99.90;;;;;;5014929;28;20124;-78
2022/07/11 08:26:18;;;;;;;1.58;0.20;;;18.40;99.90;;;;;;5031634;28;20132;-78
2022/07/11 08:28:44;;;;;;;0.65;0.20;;;18.50;99.90;;;;;;5032339;28;20037;-79
2022/07/11 08:31:09;;;;;;;0.30;0.20;;;18.40;99.90;;;;;;5032347;28;20041;-79
2022/07/11 08:33:36;;;;;;;0.60;0.08;;;18.60;99.90;;;;;;5031739;28;20069;-79
2022/07/11 08:36:01;;;;;;;0.55;0.20;;;18.80;99.90;;;;;;5027822;28;20044;-80
2022/07/11 08:38:27;;;;;;;0.63;0.20;;;18.90;99.90;;;;;;5047712;28;20052;-80
2022/07/11 08:40:52;;;;;;;0.25;0.20;;;19.10;99.90;;;;;;5031818;28;20037;-78
2022/07/11 08:43:23;;;;;;;0.80;0.30;;;19.10;99.90;;;;;;5031331;28;20396;-78
2022/07/11 08:45:49;;;;;;;0.57;0.20;;;19.00;99.90;;;;;;5031104;28;20139;-78
2022/07/11 08:48:16;;;;;;;2.33;0.30;;;18.90;99.90;;;;;;5030745;28;20496;-77
2022/07/11 08:50:41;;;;;;;0.98;0.30;;;18.70;99.90;;;;;;5030272;28;20658;-78
2022/07/11 08:53:07;;;;;;;1.02;0.30;;;18.40;99.90;;;;;;5032816;28;20044;-77
2022/07/11 08:55:33;;;;;;;1.27;0.30;;;18.30;99.90;;;;;;5039373;28;20064;-79
2022/07/11 08:57:59;;;;;;;1.02;0.40;;;18.10;99.90;;;;;;5048390;28;20048;-78
2022/07/11 09:00:25;;;;;;;1.05;0.45;;;18.00;99.90;;;;;;5031642;28;20516;-79
2022/07/11 09:02:53;;;;;;;0.60;0.30;;;18.00;99.90;;;;;;5031446;28;20131;-78
2022/07/11 09:05:18;;;;;;;0.90;0.40;;;18.00;99.90;;;;;;5031552;28;20045;-78
2022/07/11 09:07:48;;;;;;;0.15;0.10;;;18.00;99.90;;;;;;5044698;28;20037;-78
2022/07/11 09:10:15;;;;;;;0.60;0.15;;;18.00;99.90;;;;;;5049475;28;20032;-78
2022/07/11 09:13:07;;;;;;;0.40;0.20;;;18.00;99.90;;;;;;5048796;28;20060;-79
2022/07/11 09:15:39;;;;;;;0.68;0.10;;;18.00;99.90;;;;;;5048928;28;20037;-78
2022/07/11 09:18:25;;;;;;;0.50;0.13;;;18.10;99.90;;;;;;5041388;28;20402;-79
2022/07/11 09:26:32;;;;;;;0.65;0.10;;;18.40;99.90;;;;;;5048750;28;20105;-80
2022/07/11 09:29:10;;;;;;;0.98;0.40;;;18.50;99.90;;;;;;5037352;28;20044;-79
2022/07/11 09:31:37;;;;;;;0.52;0.20;;;18.50;99.90;;;;;;5042965;28;20037;-79
2022/07/11 09:34:04;;;;;;;1.60;0.15;;;18.50;99.90;;;;;;5044586;28;20140;-79
2022/07/11 09:36:44;;;;;;;3.40;0.20;;;18.50;99.90;;;;;;5046397;28;20520;-80
2022/07/11 09:39:21;;;;;;;1.50;0.20;;;18.60;99.90;;;;;;5040175;28;20509;-79
2022/07/11 09:41:49;;;;;;;0.20;0.10;;;18.70;99.90;;;;;;5043037;28;20037;-79
2022/07/11 09:44:27;;;;;;;2.65;0.32;;;18.70;99.90;;;;;;5047562;28;20040;-79
2022/07/11 09:46:53;;;;;;;0.50;0.20;;;18.60;99.90;;;;;;5044575;28;20033;-79
2022/07/11 09:49:38;;;;;;;0.82;0.20;;;18.60;99.90;;;;;;5021725;28;20033;-80
2022/07/11 09:52:08;;;;;;;0.32;0.20;;;18.70;99.90;;;;;;5047030;28;20033;-79
2022/07/11 09:54:51;;;;;;;0.43;0.20;;;18.80;99.90;;;;;;5045575;28;20055;-80
2022/07/11 09:57:16;;;;;;;0.35;0.15;;;18.90;99.90;;;;;;5031589;28;20076;-79
2022/07/11 09:59:42;;;;;;;0.57;0.20;;;18.90;99.90;;;;;;5042591;28;20506;-79
2022/07/11 10:02:14;;;;;;;0.47;0.20;;;18.90;99.90;;;;;;5035285;28;20037;-79
2022/07/11 10:04:40;;;;;;;0.50;0.20;;;18.90;99.90;;;;;;5046957;28;20110;-80
2022/07/11 10:07:06;;;;;;;0.60;0.20;;;18.90;99.90;;;;;;5040811;28;20053;-79
2022/07/11 10:09:31;;;;;;;0.95;0.30;;;18.90;99.90;;;;;;5043550;28;20553;-79
2022/07/11 10:11:57;;;;;;;0.73;0.20;;;19.00;99.90;;;;;;5031896;28;20117;-80
2022/07/11 10:14:23;;;;;;;0.77;0.30;;;19.10;99.90;;;;;;5048986;28;20037;-79
2022/07/11 10:16:56;;;;;;;1.50;0.20;;;19.20;99.90;;;;;;5037764;28;20510;-78
2022/07/11 10:19:32;;;;;;;1.90;0.20;;;19.10;99.90;;;;;;5050329;28;20478;-80
2022/07/11 10:22:14;;;;;;;0.73;0.20;;;18.80;99.90;;;;;;5041798;28;20560;-79
2022/07/11 10:24:59;;;;;;;0.70;0.30;;;19.00;99.90;;;;;;5039802;28;20079;-80
2022/07/11 10:27:36;;;;;;;1.08;0.30;;;19.20;99.90;;;;;;5049060;28;21967;-79
2022/07/11 10:30:02;;;;;;;0.47;0.20;;;19.20;99.90;;;;;;5040617;28;20443;-79
2022/07/11 10:32:28;;;;;;;0.50;0.30;;;19.20;99.90;;;;;;5040880;28;20565;-79
2022/07/11 10:35:10;;;;;;;0.60;0.20;;;19.20;99.90;;;;;;5027806;28;20033;-79
2022/07/11 10:37:47;;;;;;;3.58;0.30;;;19.10;99.90;;;;;;5042224;28;20036;-79
2022/07/11 10:40:12;;;;;;;1.52;0.30;;;19.10;99.90;;;;;;5042994;28;20037;-80
2022/07/11 10:42:41;;;;;;;2.30;0.20;;;19.10;99.90;;;;;;5045118;28;20029;-79
2022/07/11 10:45:09;;;;;;;1.05;0.20;;;19.10;99.90;;;;;;5039990;28;20037;-78
2022/07/11 10:47:43;;;;;;;0.32;0.13;;;19.00;99.90;;;;;;5056713;28;20663;-79
2022/07/11 10:50:38;;;;;;;0.75;0.20;;;19.00;99.90;;;;;;5041468;28;20047;-80
2022/07/11 10:53:09;;;;;;;1.40;0.20;;;19.20;99.90;;;;;;5041077;28;20047;-80
2022/07/11 10:55:45;;;;;;;1.52;0.45;;;19.30;99.90;;;;;;5040861;28;20048;-79
2022/07/11 10:58:18;;;;;;;0.80;0.68;;;19.40;99.90;;;;;;5043829;28;20502;-79
2022/07/11 11:00:44;;;;;;;1.55;0.47;;;19.20;99.90;;;;;;5042711;28;20639;-79
2022/07/11 11:03:10;;;;;;;0.57;0.50;;;19.00;99.90;;;;;;5044296;28;20045;-78
2022/07/11 11:05:52;;;;;;;1.38;0.80;;;19.00;99.90;;;;;;5040824;28;20492;-79
2022/07/11 11:08:36;;;;;;;1.95;0.60;;;18.90;99.90;;;;;;5042927;28;20045;-79
2022/07/11 11:11:21;;;;;;;2.00;0.60;;;18.90;99.90;;;;;;5047465;28;20041;-80
2022/07/11 11:14:06;;;;;;;1.75;0.57;;;19.00;99.90;;;;;;5046788;28;20059;-80
2022/07/11 11:16:32;;;;;;;1.13;0.55;;;19.10;99.90;;;;;;5049387;28;20950;-79
2022/07/11 11:18:57;;;;;;;1.40;0.40;;;19.30;99.90;;;;;;5048971;28;20094;-80
2022/07/11 11:21:24;;;;;;;2.00;0.50;;;19.60;99.90;;;;;;5048033;28;20522;-79
2022/07/11 11:23:59;;;;;;;1.95;0.40;;;19.50;99.90;;;;;;5046717;28;20054;-80
2022/07/11 11:26:24;;;;;;;1.88;0.52;;;19.40;99.90;;;;;;5050313;28;20507;-79
2022/07/11 11:29:06;;;;;;;0.85;0.40;;;19.40;99.90;;;;;;5049220;28;20115;-79
2022/07/11 11:31:32;;;;;;;2.92;0.35;;;19.40;99.90;;;;;;5046985;28;20033;-79
2022/07/11 11:34:01;;;;;;;4.35;0.68;;;19.40;99.90;;;;;;5046257;28;20923;-80
2022/07/11 11:36:27;;;;;;;1.75;0.40;;;19.30;99.90;;;;;;5047042;28;20514;-79
2022/07/11 11:38:54;;;;;;;3.20;0.50;;;19.40;99.90;;;;;;5047947;28;20040;-80
2022/07/11 11:41:28;;;;;;;0.90;0.30;;;19.50;99.90;;;;;;5047210;28;20049;-80
2022/07/11 11:43:59;;;;;;;0.95;0.22;;;19.50;99.90;;;;;;5046428;28;20064;-79
2022/07/11 11:46:29;;;;;;;0.75;0.25;;;19.50;99.90;;;;;;5030114;28;20411;-79
2022/07/11 11:48:59;;;;;;;0.50;0.30;;;19.40;99.90;;;;;;5046549;28;20037;-79
2022/07/11 11:51:27;;;;;;;1.05;0.65;;;19.40;99.90;;;;;;5044252;28;20074;-78
2022/07/11 11:53:58;;;;;;;0.75;0.50;;;19.30;99.90;;;;;;5042644;28;20142;-79
2022/07/11 11:56:28;;;;;;;1.08;0.50;;;19.40;99.90;;;;;;5045841;28;20045;-79
2022/07/11 11:58:59;;;;;;;1.85;0.70;;;19.40;99.90;;;;;;5042796;28;20041;-78
2022/07/11 12:01:27;;;;;;;1.17;0.82;;;19.20;99.90;;;;;;5046618;28;20041;-79
2022/07/11 12:04:01;;;;;;;1.50;0.90;;;19.30;99.90;;;;;;5048272;28;20544;-80
2022/07/11 12:06:30;;;;;;;1.42;0.55;;;19.50;99.90;;;;;;5042978;28;20176;-80
2022/07/11 12:09:11;;;;;;;1.08;0.90;;;19.40;99.90;;;;;;5048319;28;20033;-79
2022/07/11 12:11:44;;;;;;;2.28;1.10;;;19.20;99.90;;;;;;5052399;28;20049;-79
2022/07/11 12:14:12;;;;;;;2.45;0.90;;;19.10;99.90;;;;;;5038352;28;20037;-80
2022/07/11 12:16:49;;;;;;;0.73;0.45;;;19.00;99.90;;;;;;5032349;28;20529;-79
2022/07/11 12:19:22;;;;;;;1.45;0.40;;;19.00;99.90;;;;;;5032598;28;20079;-79
2022/07/11 12:21:53;;;;;;;1.25;0.80;;;19.00;99.90;;;;;;5033426;28;20123;-79
2022/07/11 12:24:20;;;;;;;2.25;1.00;;;19.10;99.90;;;;;;5032904;28;20096;-80
2022/07/11 12:26:47;;;;;;;1.88;0.80;;;19.20;99.90;;;;;;5017087;28;20514;-80
2022/07/11 12:29:24;;;;;;;1.10;0.65;;;19.20;99.90;;;;;;5032556;28;20038;-80
2022/07/11 12:31:52;;;;;;;0.90;0.50;;;19.40;99.90;;;;;;5032799;28;20372;-79
2022/07/11 12:34:20;;;;;;;1.90;0.55;;;19.50;99.90;;;;;;5049757;28;20056;-78
2022/07/11 12:36:46;;;;;;;0.82;0.30;;;19.70;99.90;;;;;;5039805;28;20045;-79
2022/07/11 12:39:26;;;;;;;1.40;0.40;;;19.70;99.90;;;;;;5033529;28;20453;-80
2022/07/11 12:41:53;;;;;;;1.85;0.60;;;19.90;99.90;;;;;;5049478;28;20124;-78
2022/07/11 12:47:08;;;;;;;1.67;0.50;;;19.90;99.90;;;;;;5049496;28;20111;-80
2022/07/11 12:49:33;;;;;;;2.35;0.63;;;19.80;99.90;;;;;;5032103;28;20119;-79
2022/07/11 12:52:02;;;;;;;1.10;0.40;;;19.80;99.90;;;;;;5016200;28;20353;-79
2022/07/11 12:54:32;;;;;;;1.88;0.50;;;19.70;99.90;;;;;;5031718;28;20415;-79
2022/07/11 12:56:58;;;;;;;0.90;0.50;;;19.70;99.90;;;;;;5031849;28;20056;-79